sensor_id;sensor_type;location;lat;lon;timestamp;P1;durP1;ratioP1;P2;durP2;ratioP2
14400;SDS011;7285;50.894;5.462;2022-07-29T00:00:11;0.30;;;0.30;;
14400;SDS011;7285;50.894;5.462;2022-07-29T00:02:39;0.30;;;0.30;;
14400;SDS011;7285;50.894;5.462;2022-07-29T00:05:06;0.20;;;0.20;;
14400;SDS011;7285;50.894;5.462;2022-07-29T00:07:34;0.20;;;0.20;;
14400;SDS011;7285;50.894;5.462;2022-07-29T00:10:03;0.30;;;0.30;;
14400;SDS011;7285;50.894;5.462;2022-07-29T00:12:30;0.30;;;0.30;;
14400;SDS011;7285;50.894;5.462;2022-07-29T00:14:57;0.30;;;0.30;;
14400;SDS011;7285;50.894;5.462;2022-07-29T00:17:24;0.30;;;0.30;;
14400;SDS011;7285;50.894;5.462;2022-07-29T00:19:52;0.37;;;0.37;;
14400;SDS011;7285;50.894;5.462;2022-07-29T00:22:19;0.20;;;0.20;;
14400;SDS011;7285;50.894;5.462;2022-07-29T00:24:46;0.20;;;0.20;;
14400;SDS011;7285;50.894;5.462;2022-07-29T00:27:15;0.20;;;0.20;;
14400;SDS011;7285;50.894;5.462;2022-07-29T00:29:42;0.30;;;0.30;;
14400;SDS011;7285;50.894;5.462;2022-07-29T00:32:09;0.73;;;0.70;;
14400;SDS011;7285;50.894;5.462;2022-07-29T00:34:36;0.30;;;0.30;;
14400;SDS011;7285;50.894;5.462;2022-07-29T00:37:20;0.23;;;0.23;;
14400;SDS011;7285;50.894;5.462;2022-07-29T00:39:47;0.20;;;0.20;;
14400;SDS011;7285;50.894;5.462;2022-07-29T00:42:15;0.30;;;0.30;;
14400;SDS011;7285;50.894;5.462;2022-07-29T00:44:42;0.30;;;0.30;;
14400;SDS011;7285;50.894;5.462;2022-07-29T00:47:09;0.20;;;0.20;;
14400;SDS011;7285;50.894;5.462;2022-07-29T00:49:37;0.30;;;0.30;;
14400;SDS011;7285;50.894;5.462;2022-07-29T00:52:06;0.20;;;0.20;;
14400;SDS011;7285;50.894;5.462;2022-07-29T00:54:33;0.20;;;0.20;;
14400;SDS011;7285;50.894;5.462;2022-07-29T00:57:01;0.30;;;0.30;;
14400;SDS011;7285;50.894;5.462;2022-07-29T00:59:29;0.50;;;0.50;;
14400;SDS011;7285;50.894;5.462;2022-07-29T01:01:57;0.40;;;0.40;;
14400;SDS011;7285;50.894;5.462;2022-07-29T01:04:24;0.47;;;0.33;;
14400;SDS011;7285;50.894;5.462;2022-07-29T01:06:51;0.30;;;0.30;;
14400;SDS011;7285;50.894;5.462;2022-07-29T01:09:19;0.43;;;0.43;;
14400;SDS011;7285;50.894;5.462;2022-07-29T01:11:47;0.33;;;0.33;;
14400;SDS011;7285;50.894;5.462;2022-07-29T01:14:14;0.30;;;0.30;;
14400;SDS011;7285;50.894;5.462;2022-07-29T01:16:44;0.30;;;0.30;;
14400;SDS011;7285;50.894;5.462;2022-07-29T01:19:23;0.30;;;0.30;;
14400;SDS011;7285;50.894;5.462;2022-07-29T01:22:07;0.30;;;0.30;;
14400;SDS011;7285;50.894;5.462;2022-07-29T01:24:47;0.30;;;0.30;;
14400;SDS011;7285;50.894;5.462;2022-07-29T01:27:41;0.20;;;0.20;;
14400;SDS011;7285;50.894;5.462;2022-07-29T01:30:18;0.30;;;0.30;;
14400;SDS011;7285;50.894;5.462;2022-07-29T01:32:47;0.30;;;0.30;;
14400;SDS011;7285;50.894;5.462;2022-07-29T01:35:19;0.20;;;0.20;;
14400;SDS011;7285;50.894;5.462;2022-07-29T01:37:50;0.30;;;0.30;;
14400;SDS011;7285;50.894;5.462;2022-07-29T01:40:22;0.30;;;0.30;;
14400;SDS011;7285;50.894;5.462;2022-07-29T01:42:54;0.93;;;0.77;;
14400;SDS011;7285;50.894;5.462;2022-07-29T01:45:25;0.20;;;0.20;;
14400;SDS011;7285;50.894;5.462;2022-07-29T01:47:58;0.30;;;0.30;;
14400;SDS011;7285;50.894;5.462;2022-07-29T01:50:30;0.30;;;0.30;;
14400;SDS011;7285;50.894;5.462;2022-07-29T01:53:00;0.30;;;0.30;;
14400;SDS011;7285;50.894;5.462;2022-07-29T01:55:31;0.30;;;0.30;;
14400;SDS011;7285;50.894;5.462;2022-07-29T01:58:01;0.30;;;0.30;;
14400;SDS011;7285;50.894;5.462;2022-07-29T02:00:32;0.20;;;0.20;;
14400;SDS011;7285;50.894;5.462;2022-07-29T02:03:00;0.30;;;0.30;;
14400;SDS011;7285;50.894;5.462;2022-07-29T02:05:31;0.57;;;0.57;;
14400;SDS011;7285;50.894;5.462;2022-07-29T02:08:00;0.30;;;0.30;;
14400;SDS011;7285;50.894;5.462;2022-07-29T02:10:28;0.30;;;0.30;;
14400;SDS011;7285;50.894;5.462;2022-07-29T02:12:57;0.30;;;0.30;;
14400;SDS011;7285;50.894;5.462;2022-07-29T02:15:26;0.30;;;0.30;;
14400;SDS011;7285;50.894;5.462;2022-07-29T02:17:58;0.60;;;0.60;;
14400;SDS011;7285;50.894;5.462;2022-07-29T02:20:28;0.30;;;0.30;;
14400;SDS011;7285;50.894;5.462;2022-07-29T02:22:55;0.30;;;0.30;;
14400;SDS011;7285;50.894;5.462;2022-07-29T02:25:24;0.30;;;0.30;;
14400;SDS011;7285;50.894;5.462;2022-07-29T02:27:52;0.30;;;0.30;;
14400;SDS011;7285;50.894;5.462;2022-07-29T02:30:21;0.30;;;0.30;;
14400;SDS011;7285;50.894;5.462;2022-07-29T02:32:50;0.30;;;0.30;;
14400;SDS011;7285;50.894;5.462;2022-07-29T02:35:19;0.30;;;0.30;;
14400;SDS011;7285;50.894;5.462;2022-07-29T02:37:47;0.40;;;0.40;;
14400;SDS011;7285;50.894;5.462;2022-07-29T02:40:37;0.30;;;0.30;;
14400;SDS011;7285;50.894;5.462;2022-07-29T02:43:05;0.30;;;0.30;;
14400;SDS011;7285;50.894;5.462;2022-07-29T02:45:34;0.40;;;0.40;;
14400;SDS011;7285;50.894;5.462;2022-07-29T02:48:03;0.30;;;0.30;;
14400;SDS011;7285;50.894;5.462;2022-07-29T02:50:37;0.30;;;0.30;;
14400;SDS011;7285;50.894;5.462;2022-07-29T02:53:12;0.37;;;0.37;;
14400;SDS011;7285;50.894;5.462;2022-07-29T02:55:43;0.30;;;0.30;;
14400;SDS011;7285;50.894;5.462;2022-07-29T02:58:13;0.40;;;0.40;;
14400;SDS011;7285;50.894;5.462;2022-07-29T03:00:48;0.60;;;0.60;;
14400;SDS011;7285;50.894;5.462;2022-07-29T03:03:17;0.30;;;0.30;;
14400;SDS011;7285;50.894;5.462;2022-07-29T03:05:48;0.30;;;0.30;;
14400;SDS011;7285;50.894;5.462;2022-07-29T03:08:15;0.37;;;0.37;;
14400;SDS011;7285;50.894;5.462;2022-07-29T03:10:43;0.30;;;0.30;;
14400;SDS011;7285;50.894;5.462;2022-07-29T03:13:12;0.40;;;0.40;;
14400;SDS011;7285;50.894;5.462;2022-07-29T03:15:41;0.40;;;0.40;;
14400;SDS011;7285;50.894;5.462;2022-07-29T03:18:09;0.50;;;0.50;;
14400;SDS011;7285;50.894;5.462;2022-07-29T03:20:37;0.43;;;0.43;;
14400;SDS011;7285;50.894;5.462;2022-07-29T03:23:06;0.40;;;0.40;;
14400;SDS011;7285;50.894;5.462;2022-07-29T03:25:34;0.33;;;0.33;;
14400;SDS011;7285;50.894;5.462;2022-07-29T03:28:01;0.40;;;0.40;;
14400;SDS011;7285;50.894;5.462;2022-07-29T03:30:28;0.40;;;0.40;;
14400;SDS011;7285;50.894;5.462;2022-07-29T03:32:55;0.40;;;0.40;;
14400;SDS011;7285;50.894;5.462;2022-07-29T03:35:22;0.67;;;0.67;;
14400;SDS011;7285;50.894;5.462;2022-07-29T03:37:49;0.40;;;0.40;;
14400;SDS011;7285;50.894;5.462;2022-07-29T03:40:18;0.30;;;0.30;;
14400;SDS011;7285;50.894;5.462;2022-07-29T03:42:50;0.40;;;0.40;;
14400;SDS011;7285;50.894;5.462;2022-07-29T03:45:19;0.40;;;0.40;;
14400;SDS011;7285;50.894;5.462;2022-07-29T03:47:47;0.40;;;0.40;;
14400;SDS011;7285;50.894;5.462;2022-07-29T03:50:18;0.40;;;0.40;;
14400;SDS011;7285;50.894;5.462;2022-07-29T03:52:46;0.37;;;0.37;;
14400;SDS011;7285;50.894;5.462;2022-07-29T03:55:14;0.37;;;0.37;;
14400;SDS011;7285;50.894;5.462;2022-07-29T03:57:43;0.40;;;0.40;;
14400;SDS011;7285;50.894;5.462;2022-07-29T04:00:12;0.40;;;0.40;;
14400;SDS011;7285;50.894;5.462;2022-07-29T04:02:40;0.30;;;0.30;;
14400;SDS011;7285;50.894;5.462;2022-07-29T04:05:11;0.40;;;0.40;;
14400;SDS011;7285;50.894;5.462;2022-07-29T04:07:38;0.30;;;0.30;;
14400;SDS011;7285;50.894;5.462;2022-07-29T04:10:05;0.30;;;0.30;;
14400;SDS011;7285;50.894;5.462;2022-07-29T04:12:33;0.40;;;0.40;;
14400;SDS011;7285;50.894;5.462;2022-07-29T04:15:01;0.30;;;0.30;;
14400;SDS011;7285;50.894;5.462;2022-07-29T04:17:28;0.40;;;0.40;;
14400;SDS011;7285;50.894;5.462;2022-07-29T04:19:55;0.40;;;0.40;;
14400;SDS011;7285;50.894;5.462;2022-07-29T04:22:22;0.40;;;0.40;;
14400;SDS011;7285;50.894;5.462;2022-07-29T04:24:49;0.37;;;0.37;;
14400;SDS011;7285;50.894;5.462;2022-07-29T04:27:16;0.40;;;0.40;;
14400;SDS011;7285;50.894;5.462;2022-07-29T04:29:43;0.30;;;0.30;;
14400;SDS011;7285;50.894;5.462;2022-07-29T04:32:11;0.40;;;0.40;;
14400;SDS011;7285;50.894;5.462;2022-07-29T04:34:38;0.40;;;0.40;;
14400;SDS011;7285;50.894;5.462;2022-07-29T04:37:05;0.43;;;0.43;;
14400;SDS011;7285;50.894;5.462;2022-07-29T04:39:32;0.40;;;0.40;;
14400;SDS011;7285;50.894;5.462;2022-07-29T04:41:59;0.70;;;0.70;;
14400;SDS011;7285;50.894;5.462;2022-07-29T04:44:26;0.30;;;0.30;;
14400;SDS011;7285;50.894;5.462;2022-07-29T04:46:53;0.30;;;0.30;;
14400;SDS011;7285;50.894;5.462;2022-07-29T04:49:21;0.40;;;0.40;;
14400;SDS011;7285;50.894;5.462;2022-07-29T04:51:48;0.40;;;0.40;;
14400;SDS011;7285;50.894;5.462;2022-07-29T04:54:15;0.40;;;0.40;;
14400;SDS011;7285;50.894;5.462;2022-07-29T04:56:42;0.33;;;0.33;;
14400;SDS011;7285;50.894;5.462;2022-07-29T04:59:09;0.40;;;0.40;;
14400;SDS011;7285;50.894;5.462;2022-07-29T05:01:36;0.30;;;0.30;;
14400;SDS011;7285;50.894;5.462;2022-07-29T05:04:03;0.37;;;0.37;;
14400;SDS011;7285;50.894;5.462;2022-07-29T05:06:31;0.50;;;0.50;;
14400;SDS011;7285;50.894;5.462;2022-07-29T05:08:58;0.40;;;0.40;;
14400;SDS011;7285;50.894;5.462;2022-07-29T05:11:25;0.37;;;0.37;;
14400;SDS011;7285;50.894;5.462;2022-07-29T05:13:52;0.33;;;0.33;;
14400;SDS011;7285;50.894;5.462;2022-07-29T05:16:19;0.40;;;0.40;;
14400;SDS011;7285;50.894;5.462;2022-07-29T05:18:46;0.40;;;0.40;;
14400;SDS011;7285;50.894;5.462;2022-07-29T05:21:13;0.40;;;0.40;;
14400;SDS011;7285;50.894;5.462;2022-07-29T05:23:41;0.40;;;0.40;;
14400;SDS011;7285;50.894;5.462;2022-07-29T05:26:08;0.40;;;0.40;;
14400;SDS011;7285;50.894;5.462;2022-07-29T05:28:35;0.40;;;0.40;;
14400;SDS011;7285;50.894;5.462;2022-07-29T05:31:02;0.40;;;0.40;;
14400;SDS011;7285;50.894;5.462;2022-07-29T05:33:29;0.30;;;0.30;;
14400;SDS011;7285;50.894;5.462;2022-07-29T05:35:56;0.40;;;0.40;;
14400;SDS011;7285;50.894;5.462;2022-07-29T05:38:23;0.33;;;0.33;;
14400;SDS011;7285;50.894;5.462;2022-07-29T05:40:51;0.50;;;0.50;;
14400;SDS011;7285;50.894;5.462;2022-07-29T05:43:18;0.40;;;0.40;;
14400;SDS011;7285;50.894;5.462;2022-07-29T05:45:45;0.40;;;0.40;;
14400;SDS011;7285;50.894;5.462;2022-07-29T05:48:12;0.40;;;0.40;;
14400;SDS011;7285;50.894;5.462;2022-07-29T05:50:39;0.40;;;0.40;;
14400;SDS011;7285;50.894;5.462;2022-07-29T05:53:06;0.30;;;0.30;;
14400;SDS011;7285;50.894;5.462;2022-07-29T05:55:33;0.30;;;0.30;;
14400;SDS011;7285;50.894;5.462;2022-07-29T05:58:01;0.37;;;0.37;;
14400;SDS011;7285;50.894;5.462;2022-07-29T06:00:28;0.40;;;0.40;;
14400;SDS011;7285;50.894;5.462;2022-07-29T06:02:55;0.40;;;0.40;;
14400;SDS011;7285;50.894;5.462;2022-07-29T06:05:22;0.30;;;0.30;;
14400;SDS011;7285;50.894;5.462;2022-07-29T06:07:49;0.40;;;0.40;;
14400;SDS011;7285;50.894;5.462;2022-07-29T06:10:16;0.30;;;0.30;;
14400;SDS011;7285;50.894;5.462;2022-07-29T06:12:43;0.30;;;0.30;;
14400;SDS011;7285;50.894;5.462;2022-07-29T06:15:11;0.50;;;0.50;;
14400;SDS011;7285;50.894;5.462;2022-07-29T06:17:41;0.30;;;0.30;;
14400;SDS011;7285;50.894;5.462;2022-07-29T06:20:08;0.37;;;0.37;;
14400;SDS011;7285;50.894;5.462;2022-07-29T06:22:36;0.30;;;0.30;;
14400;SDS011;7285;50.894;5.462;2022-07-29T06:25:03;0.40;;;0.40;;
14400;SDS011;7285;50.894;5.462;2022-07-29T06:27:30;0.30;;;0.30;;
14400;SDS011;7285;50.894;5.462;2022-07-29T06:29:57;0.30;;;0.30;;
14400;SDS011;7285;50.894;5.462;2022-07-29T06:32:26;0.30;;;0.30;;
14400;SDS011;7285;50.894;5.462;2022-07-29T06:34:52;0.30;;;0.30;;
14400;SDS011;7285;50.894;5.462;2022-07-29T06:37:19;0.20;;;0.20;;
14400;SDS011;7285;50.894;5.462;2022-07-29T06:39:47;0.37;;;0.37;;
14400;SDS011;7285;50.894;5.462;2022-07-29T06:42:34;0.47;;;0.47;;
14400;SDS011;7285;50.894;5.462;2022-07-29T06:45:01;0.30;;;0.30;;
14400;SDS011;7285;50.894;5.462;2022-07-29T06:47:29;0.30;;;0.30;;
14400;SDS011;7285;50.894;5.462;2022-07-29T06:49:56;0.30;;;0.30;;
14400;SDS011;7285;50.894;5.462;2022-07-29T06:52:23;0.30;;;0.30;;
14400;SDS011;7285;50.894;5.462;2022-07-29T06:54:50;0.30;;;0.30;;
14400;SDS011;7285;50.894;5.462;2022-07-29T06:57:18;0.30;;;0.30;;
14400;SDS011;7285;50.894;5.462;2022-07-29T06:59:45;0.30;;;0.30;;
14400;SDS011;7285;50.894;5.462;2022-07-29T07:02:12;0.27;;;0.27;;
14400;SDS011;7285;50.894;5.462;2022-07-29T07:04:40;0.30;;;0.30;;
14400;SDS011;7285;50.894;5.462;2022-07-29T07:07:07;0.20;;;0.20;;
14400;SDS011;7285;50.894;5.462;2022-07-29T07:09:34;0.30;;;0.30;;
14400;SDS011;7285;50.894;5.462;2022-07-29T07:12:01;0.30;;;0.30;;
14400;SDS011;7285;50.894;5.462;2022-07-29T07:14:28;0.53;;;0.53;;
14400;SDS011;7285;50.894;5.462;2022-07-29T07:16:55;0.70;;;0.70;;
14400;SDS011;7285;50.894;5.462;2022-07-29T07:19:22;0.20;;;0.20;;
14400;SDS011;7285;50.894;5.462;2022-07-29T07:21:50;0.30;;;0.30;;
14400;SDS011;7285;50.894;5.462;2022-07-29T07:24:18;0.20;;;0.20;;
14400;SDS011;7285;50.894;5.462;2022-07-29T07:26:45;0.30;;;0.30;;
14400;SDS011;7285;50.894;5.462;2022-07-29T07:29:12;0.20;;;0.20;;
14400;SDS011;7285;50.894;5.462;2022-07-29T07:31:39;0.30;;;0.30;;
14400;SDS011;7285;50.894;5.462;2022-07-29T07:34:06;0.20;;;0.20;;
14400;SDS011;7285;50.894;5.462;2022-07-29T07:36:32;0.20;;;0.20;;
14400;SDS011;7285;50.894;5.462;2022-07-29T07:39:01;0.40;;;0.40;;
14400;SDS011;7285;50.894;5.462;2022-07-29T07:41:28;0.97;;;0.97;;
14400;SDS011;7285;50.894;5.462;2022-07-29T07:43:55;0.50;;;0.50;;
14400;SDS011;7285;50.894;5.462;2022-07-29T07:46:22;0.20;;;0.20;;
14400;SDS011;7285;50.894;5.462;2022-07-29T07:48:49;0.20;;;0.20;;
14400;SDS011;7285;50.894;5.462;2022-07-29T07:51:17;0.30;;;0.30;;
14400;SDS011;7285;50.894;5.462;2022-07-29T07:53:44;0.23;;;0.23;;
14400;SDS011;7285;50.894;5.462;2022-07-29T07:56:16;0.30;;;0.30;;
14400;SDS011;7285;50.894;5.462;2022-07-29T07:58:43;0.20;;;0.20;;
14400;SDS011;7285;50.894;5.462;2022-07-29T08:01:09;0.27;;;0.27;;
14400;SDS011;7285;50.894;5.462;2022-07-29T08:03:36;0.40;;;0.40;;
14400;SDS011;7285;50.894;5.462;2022-07-29T08:06:04;0.30;;;0.30;;
14400;SDS011;7285;50.894;5.462;2022-07-29T08:08:31;0.20;;;0.20;;
14400;SDS011;7285;50.894;5.462;2022-07-29T08:10:58;0.20;;;0.20;;
14400;SDS011;7285;50.894;5.462;2022-07-29T08:13:28;0.20;;;0.20;;
14400;SDS011;7285;50.894;5.462;2022-07-29T08:15:56;0.20;;;0.20;;
14400;SDS011;7285;50.894;5.462;2022-07-29T08:18:25;0.20;;;0.20;;
14400;SDS011;7285;50.894;5.462;2022-07-29T08:20:52;0.20;;;0.20;;
14400;SDS011;7285;50.894;5.462;2022-07-29T08:23:19;0.27;;;0.27;;
14400;SDS011;7285;50.894;5.462;2022-07-29T08:25:47;0.20;;;0.20;;
14400;SDS011;7285;50.894;5.462;2022-07-29T08:28:15;0.20;;;0.20;;
14400;SDS011;7285;50.894;5.462;2022-07-29T08:30:44;0.20;;;0.20;;
14400;SDS011;7285;50.894;5.462;2022-07-29T08:33:11;0.30;;;0.30;;
14400;SDS011;7285;50.894;5.462;2022-07-29T08:35:38;0.20;;;0.20;;
14400;SDS011;7285;50.894;5.462;2022-07-29T08:38:05;0.30;;;0.30;;
14400;SDS011;7285;50.894;5.462;2022-07-29T08:40:32;0.30;;;0.30;;
14400;SDS011;7285;50.894;5.462;2022-07-29T08:43:03;0.30;;;0.30;;
14400;SDS011;7285;50.894;5.462;2022-07-29T08:45:33;0.20;;;0.20;;
14400;SDS011;7285;50.894;5.462;2022-07-29T08:48:08;0.33;;;0.33;;
14400;SDS011;7285;50.894;5.462;2022-07-29T08:50:35;0.27;;;0.27;;
14400;SDS011;7285;50.894;5.462;2022-07-29T08:53:02;0.20;;;0.20;;
14400;SDS011;7285;50.894;5.462;2022-07-29T08:55:31;0.20;;;0.20;;
14400;SDS011;7285;50.894;5.462;2022-07-29T08:57:58;0.20;;;0.20;;
14400;SDS011;7285;50.894;5.462;2022-07-29T09:00:25;0.20;;;0.20;;
14400;SDS011;7285;50.894;5.462;2022-07-29T09:02:56;0.30;;;0.30;;
14400;SDS011;7285;50.894;5.462;2022-07-29T09:05:25;0.20;;;0.20;;
14400;SDS011;7285;50.894;5.462;2022-07-29T09:07:53;0.20;;;0.20;;
14400;SDS011;7285;50.894;5.462;2022-07-29T09:10:20;0.30;;;0.30;;
14400;SDS011;7285;50.894;5.462;2022-07-29T09:12:47;0.20;;;0.20;;
14400;SDS011;7285;50.894;5.462;2022-07-29T09:15:14;0.30;;;0.30;;
14400;SDS011;7285;50.894;5.462;2022-07-29T09:17:42;0.20;;;0.20;;
14400;SDS011;7285;50.894;5.462;2022-07-29T09:20:11;0.27;;;0.27;;
14400;SDS011;7285;50.894;5.462;2022-07-29T09:22:40;0.10;;;0.10;;
14400;SDS011;7285;50.894;5.462;2022-07-29T09:25:08;0.23;;;0.23;;
14400;SDS011;7285;50.894;5.462;2022-07-29T09:27:37;0.50;;;0.50;;
14400;SDS011;7285;50.894;5.462;2022-07-29T09:30:06;0.23;;;0.23;;
14400;SDS011;7285;50.894;5.462;2022-07-29T09:32:53;0.20;;;0.20;;
14400;SDS011;7285;50.894;5.462;2022-07-29T09:35:21;0.37;;;0.37;;
14400;SDS011;7285;50.894;5.462;2022-07-29T09:37:51;0.20;;;0.20;;
14400;SDS011;7285;50.894;5.462;2022-07-29T09:40:19;0.80;;;0.80;;
14400;SDS011;7285;50.894;5.462;2022-07-29T09:42:46;0.20;;;0.20;;
14400;SDS011;7285;50.894;5.462;2022-07-29T09:45:25;0.20;;;0.20;;
14400;SDS011;7285;50.894;5.462;2022-07-29T09:47:54;0.30;;;0.30;;
14400;SDS011;7285;50.894;5.462;2022-07-29T09:50:34;0.20;;;0.20;;
14400;SDS011;7285;50.894;5.462;2022-07-29T09:53:03;0.20;;;0.20;;
14400;SDS011;7285;50.894;5.462;2022-07-29T09:55:30;0.20;;;0.20;;
14400;SDS011;7285;50.894;5.462;2022-07-29T10:00:42;0.10;;;0.10;;
14400;SDS011;7285;50.894;5.462;2022-07-29T10:03:10;0.30;;;0.30;;
14400;SDS011;7285;50.894;5.462;2022-07-29T10:05:37;0.20;;;0.20;;
14400;SDS011;7285;50.894;5.462;2022-07-29T10:08:06;0.10;;;0.10;;
14400;SDS011;7285;50.894;5.462;2022-07-29T10:10:35;0.17;;;0.17;;
14400;SDS011;7285;50.894;5.462;2022-07-29T10:13:04;0.17;;;0.17;;
14400;SDS011;7285;50.894;5.462;2022-07-29T10:15:33;0.10;;;0.10;;
14400;SDS011;7285;50.894;5.462;2022-07-29T10:18:04;0.20;;;0.20;;
14400;SDS011;7285;50.894;5.462;2022-07-29T10:20:31;0.13;;;0.13;;
14400;SDS011;7285;50.894;5.462;2022-07-29T10:22:58;5.43;;;0.30;;
14400;SDS011;7285;50.894;5.462;2022-07-29T10:25:27;0.10;;;0.10;;
14400;SDS011;7285;50.894;5.462;2022-07-29T10:27:54;0.10;;;0.10;;
14400;SDS011;7285;50.894;5.462;2022-07-29T10:30:22;0.20;;;0.20;;
14400;SDS011;7285;50.894;5.462;2022-07-29T10:36:02;0.30;;;0.30;;
14400;SDS011;7285;50.894;5.462;2022-07-29T10:38:54;0.10;;;0.10;;
14400;SDS011;7285;50.894;5.462;2022-07-29T10:41:34;0.15;;;0.15;;
14400;SDS011;7285;50.894;5.462;2022-07-29T10:44:13;0.40;;;0.40;;
14400;SDS011;7285;50.894;5.462;2022-07-29T10:46:42;0.20;;;0.20;;
14400;SDS011;7285;50.894;5.462;2022-07-29T10:49:11;0.10;;;0.10;;
14400;SDS011;7285;50.894;5.462;2022-07-29T10:54:44;0.17;;;0.17;;
14400;SDS011;7285;50.894;5.462;2022-07-29T11:02:52;0.10;;;0.10;;
14400;SDS011;7285;50.894;5.462;2022-07-29T11:05:21;0.10;;;0.10;;
14400;SDS011;7285;50.894;5.462;2022-07-29T11:10:49;0.32;;;0.32;;
14400;SDS011;7285;50.894;5.462;2022-07-29T11:16:12;0.38;;;0.38;;
14400;SDS011;7285;50.894;5.462;2022-07-29T11:21:41;0.10;;;0.10;;
14400;SDS011;7285;50.894;5.462;2022-07-29T11:24:12;0.08;;;0.08;;
14400;SDS011;7285;50.894;5.462;2022-07-29T11:26:39;0.00;;;0.00;;
14400;SDS011;7285;50.894;5.462;2022-07-29T11:29:13;0.00;;;0.00;;
14400;SDS011;7285;50.894;5.462;2022-07-29T11:31:45;0.10;;;0.10;;
14400;SDS011;7285;50.894;5.462;2022-07-29T11:34:20;0.10;;;0.10;;
14400;SDS011;7285;50.894;5.462;2022-07-29T11:42:48;0.20;;;0.20;;
14400;SDS011;7285;50.894;5.462;2022-07-29T11:45:18;0.00;;;0.00;;
14400;SDS011;7285;50.894;5.462;2022-07-29T11:47:48;0.00;;;0.00;;
14400;SDS011;7285;50.894;5.462;2022-07-29T11:50:27;0.10;;;0.10;;
14400;SDS011;7285;50.894;5.462;2022-07-29T11:52:59;0.20;;;0.10;;
14400;SDS011;7285;50.894;5.462;2022-07-29T11:55:26;0.17;;;0.17;;
14400;SDS011;7285;50.894;5.462;2022-07-29T11:57:54;0.03;;;0.03;;
14400;SDS011;7285;50.894;5.462;2022-07-29T12:00:26;0.10;;;0.10;;
14400;SDS011;7285;50.894;5.462;2022-07-29T12:02:55;0.10;;;0.10;;
14400;SDS011;7285;50.894;5.462;2022-07-29T12:05:30;0.10;;;0.10;;
14400;SDS011;7285;50.894;5.462;2022-07-29T12:08:04;0.20;;;0.20;;
14400;SDS011;7285;50.894;5.462;2022-07-29T12:10:38;0.00;;;0.00;;
14400;SDS011;7285;50.894;5.462;2022-07-29T12:13:06;0.10;;;0.10;;
14400;SDS011;7285;50.894;5.462;2022-07-29T12:15:35;0.10;;;0.10;;
14400;SDS011;7285;50.894;5.462;2022-07-29T12:18:09;0.10;;;0.10;;
14400;SDS011;7285;50.894;5.462;2022-07-29T12:20:37;0.10;;;0.10;;
14400;SDS011;7285;50.894;5.462;2022-07-29T12:23:04;0.00;;;0.00;;
14400;SDS011;7285;50.894;5.462;2022-07-29T12:25:33;0.00;;;0.00;;
14400;SDS011;7285;50.894;5.462;2022-07-29T12:28:02;0.10;;;0.10;;
14400;SDS011;7285;50.894;5.462;2022-07-29T12:30:34;0.20;;;0.20;;
14400;SDS011;7285;50.894;5.462;2022-07-29T12:33:10;0.15;;;0.15;;
14400;SDS011;7285;50.894;5.462;2022-07-29T12:35:38;0.10;;;0.10;;
14400;SDS011;7285;50.894;5.462;2022-07-29T12:38:05;0.00;;;0.00;;
14400;SDS011;7285;50.894;5.462;2022-07-29T12:40:33;0.10;;;0.10;;
14400;SDS011;7285;50.894;5.462;2022-07-29T12:43:07;0.00;;;0.00;;
14400;SDS011;7285;50.894;5.462;2022-07-29T12:45:36;0.10;;;0.10;;
14400;SDS011;7285;50.894;5.462;2022-07-29T12:48:04;0.00;;;0.00;;
14400;SDS011;7285;50.894;5.462;2022-07-29T12:50:33;0.00;;;0.00;;
14400;SDS011;7285;50.894;5.462;2022-07-29T12:53:08;0.10;;;0.10;;
14400;SDS011;7285;50.894;5.462;2022-07-29T12:55:43;0.00;;;0.00;;
14400;SDS011;7285;50.894;5.462;2022-07-29T12:58:14;0.00;;;0.00;;
14400;SDS011;7285;50.894;5.462;2022-07-29T13:00:59;0.08;;;0.08;;
14400;SDS011;7285;50.894;5.462;2022-07-29T13:06:30;0.10;;;0.10;;
14400;SDS011;7285;50.894;5.462;2022-07-29T13:08:59;0.10;;;0.10;;
14400;SDS011;7285;50.894;5.462;2022-07-29T13:11:28;0.00;;;0.00;;
14400;SDS011;7285;50.894;5.462;2022-07-29T13:13:55;0.17;;;0.17;;
14400;SDS011;7285;50.894;5.462;2022-07-29T13:16:24;0.00;;;0.00;;
14400;SDS011;7285;50.894;5.462;2022-07-29T13:19:02;0.20;;;0.20;;
14400;SDS011;7285;50.894;5.462;2022-07-29T13:21:34;0.10;;;0.10;;
14400;SDS011;7285;50.894;5.462;2022-07-29T13:24:01;0.00;;;0.00;;
14400;SDS011;7285;50.894;5.462;2022-07-29T13:26:28;0.22;;;0.22;;
14400;SDS011;7285;50.894;5.462;2022-07-29T13:28:55;0.10;;;0.10;;
14400;SDS011;7285;50.894;5.462;2022-07-29T13:31:24;0.30;;;0.30;;
14400;SDS011;7285;50.894;5.462;2022-07-29T13:33:51;0.00;;;0.00;;
14400;SDS011;7285;50.894;5.462;2022-07-29T13:36:17;0.17;;;0.17;;
14400;SDS011;7285;50.894;5.462;2022-07-29T13:38:45;0.13;;;0.13;;
14400;SDS011;7285;50.894;5.462;2022-07-29T13:41:12;0.20;;;0.20;;
14400;SDS011;7285;50.894;5.462;2022-07-29T13:43:39;0.05;;;0.05;;
14400;SDS011;7285;50.894;5.462;2022-07-29T13:46:06;0.00;;;0.00;;
14400;SDS011;7285;50.894;5.462;2022-07-29T13:48:34;0.00;;;0.00;;
14400;SDS011;7285;50.894;5.462;2022-07-29T13:51:01;0.10;;;0.10;;
14400;SDS011;7285;50.894;5.462;2022-07-29T13:53:28;0.10;;;0.10;;
14400;SDS011;7285;50.894;5.462;2022-07-29T13:55:55;0.10;;;0.10;;
14400;SDS011;7285;50.894;5.462;2022-07-29T13:58:22;0.25;;;0.25;;
14400;SDS011;7285;50.894;5.462;2022-07-29T14:00:49;0.00;;;0.00;;
14400;SDS011;7285;50.894;5.462;2022-07-29T14:03:16;0.03;;;0.03;;
14400;SDS011;7285;50.894;5.462;2022-07-29T14:05:44;0.10;;;0.10;;
14400;SDS011;7285;50.894;5.462;2022-07-29T14:08:11;0.10;;;0.10;;
14400;SDS011;7285;50.894;5.462;2022-07-29T14:10:38;0.10;;;0.10;;
14400;SDS011;7285;50.894;5.462;2022-07-29T14:13:05;0.00;;;0.00;;
14400;SDS011;7285;50.894;5.462;2022-07-29T14:15:32;0.10;;;0.10;;
14400;SDS011;7285;50.894;5.462;2022-07-29T14:17:59;0.00;;;0.00;;
14400;SDS011;7285;50.894;5.462;2022-07-29T14:20:26;0.10;;;0.10;;
14400;SDS011;7285;50.894;5.462;2022-07-29T14:22:56;0.00;;;0.00;;
14400;SDS011;7285;50.894;5.462;2022-07-29T14:25:23;0.03;;;0.03;;
14400;SDS011;7285;50.894;5.462;2022-07-29T14:27:50;0.00;;;0.00;;
14400;SDS011;7285;50.894;5.462;2022-07-29T14:30:18;0.00;;;0.00;;
14400;SDS011;7285;50.894;5.462;2022-07-29T14:32:45;0.10;;;0.10;;
14400;SDS011;7285;50.894;5.462;2022-07-29T14:35:12;0.00;;;0.00;;
14400;SDS011;7285;50.894;5.462;2022-07-29T14:37:39;0.10;;;0.10;;
14400;SDS011;7285;50.894;5.462;2022-07-29T14:40:08;0.10;;;0.10;;
14400;SDS011;7285;50.894;5.462;2022-07-29T14:42:36;0.00;;;0.00;;
14400;SDS011;7285;50.894;5.462;2022-07-29T14:45:04;0.00;;;0.00;;
14400;SDS011;7285;50.894;5.462;2022-07-29T14:47:32;0.00;;;0.00;;
14400;SDS011;7285;50.894;5.462;2022-07-29T14:49:59;0.00;;;0.00;;
14400;SDS011;7285;50.894;5.462;2022-07-29T14:52:26;0.05;;;0.05;;
14400;SDS011;7285;50.894;5.462;2022-07-29T14:54:53;0.00;;;0.00;;
14400;SDS011;7285;50.894;5.462;2022-07-29T14:57:21;0.00;;;0.00;;
14400;SDS011;7285;50.894;5.462;2022-07-29T14:59:48;0.00;;;0.00;;
14400;SDS011;7285;50.894;5.462;2022-07-29T15:02:15;0.00;;;0.00;;
14400;SDS011;7285;50.894;5.462;2022-07-29T15:04:42;0.00;;;0.00;;
14400;SDS011;7285;50.894;5.462;2022-07-29T15:07:11;0.05;;;0.05;;
14400;SDS011;7285;50.894;5.462;2022-07-29T15:09:37;0.00;;;0.00;;
14400;SDS011;7285;50.894;5.462;2022-07-29T15:12:04;0.10;;;0.10;;
14400;SDS011;7285;50.894;5.462;2022-07-29T15:14:33;0.00;;;0.00;;
14400;SDS011;7285;50.894;5.462;2022-07-29T15:17:00;0.10;;;0.10;;
14400;SDS011;7285;50.894;5.462;2022-07-29T15:19:27;0.17;;;0.17;;
14400;SDS011;7285;50.894;5.462;2022-07-29T15:21:54;0.00;;;0.00;;
14400;SDS011;7285;50.894;5.462;2022-07-29T15:24:21;0.10;;;0.10;;
14400;SDS011;7285;50.894;5.462;2022-07-29T15:26:48;0.10;;;0.10;;
14400;SDS011;7285;50.894;5.462;2022-07-29T15:29:15;0.17;;;0.17;;
14400;SDS011;7285;50.894;5.462;2022-07-29T15:31:43;0.08;;;0.08;;
14400;SDS011;7285;50.894;5.462;2022-07-29T15:34:10;0.13;;;0.13;;
14400;SDS011;7285;50.894;5.462;2022-07-29T15:36:37;0.00;;;0.00;;
14400;SDS011;7285;50.894;5.462;2022-07-29T15:39:04;0.10;;;0.10;;
14400;SDS011;7285;50.894;5.462;2022-07-29T15:41:32;0.20;;;0.20;;